TJSJTQPF

Guest
Details From TJSJ - San Juan - Luis Munoz Marin Intl
To TQPF - Anguilla/Wallblake
Flight Number -
Tags generated
Created
Modified
Stats Distance 169 nm / 313 km
Max Altitude 19,500 ft / 5,944 m
Waypoints 3
Social Downloads 1
Likes 0
Share VATSIM

Download

Looking for another format? Having issues loading an existing format? Contact us
Advertisement - Login to hide

Notes

Basic altitude profile: - Ascent Rate: 2500ft/min - Ascent Speed: 250kts - Cruise Altitude: 35000ft - Cruise Speed: 420kts - Descent Rate: 1500ft/min - Descent Speed: 250kts Options: - Use NATs: yes - Use PACOTS: yes - Use low airways: yes - Use high airways: yes

Route

TJSJ PASIC TQPF

ID Type Via Altitude Latitude Longitude Leg Dist Tot Dist Heading (true) Name
O TJSJ APT - 0 ft / 0 m 18.43878˚ -66.00202˚ - 0 nm - San Juan - Luis Munoz Marin Intl
PASIC FIX - 19,500 ft / 5,944 m 18.29481˚ -64.65002˚ 77 nm 77 nm 96° / 97° -
O TQPF APT - 0 ft / 0 m 18.20480˚ -63.05386˚ 91 nm 168 nm 93° / 94° Anguilla/Wallblake

Altitude Profile

Advertisement - Login to hide

Weather


0- 5 10 15 20 25 30 35+ Temperature / ° C

Clouds and Precipitation
Forecast for 2017-12-15 00:00 UTC. Updated 2 hours ago

Ground ~20,000 ft ~40,000 ft Winds

TJSJ

Details ICAO TJSJ (SJU)
Name San Juan - Luis Munoz Marin Intl
Region USA (Puerto Rico)
Timezone America/Puerto_Rico (UTC-4.0)
Stats Elevation 9 ft / 3 m (AMSL)
Location 18.438777° -66.002018°
Runways 2
Magnetic Variation 13.222° W

METAR

TJSJ 142056Z 08014KT 10SM FEW040 FEW055 28/22 A2999

Decode

TAF

TAF TAF TJSJ 141738Z 1418/1518 08008KT P6SM SCT030 FM142300 10005KT P6SM FEW030 FM151430 08015KT P6SM SCT030

Decode

Departure Runways

ID Width Length Bearing (true) Bearing (mag) Surface Threshold Offset Overrun Length
08 200 ft / 61 m 9,781 ft / 2,981 m 66.87° 80.09° Asphalt 0 ft / 0 m 200 ft / 61 m
10 151 ft / 46 m 8,007 ft / 2,440 m 90.14° 103.36° Concrete 0 ft / 0 m 200 ft / 61 m
26 200 ft / 61 m 9,781 ft / 2,981 m 246.88° 260.10° Asphalt 0 ft / 0 m 230 ft / 70 m
28 151 ft / 46 m 8,007 ft / 2,440 m 270.15° 283.37° Concrete 0 ft / 0 m 200 ft / 61 m

TQPF

Details ICAO TQPF (AXA)
Name Anguilla/Wallblake
Region UK (Anguilla)
Timezone America/Anguilla (UTC-4.0)
Stats Elevation 127 ft / 39 m (AMSL)
Location 18.204798° -63.053855°
Runways 1
Magnetic Variation 14.348° W

METAR

TQPF 142000Z 09008KT 9999 SCT021 28/21 Q1016

Decode

TAF

TAF TQPF 141700Z 1418/1518 09012KT 9999 SCT022

Decode

Destination Runways

ID Width Length Bearing (true) Bearing (mag) Surface Threshold Offset Overrun Length
10 98 ft / 30 m 5,454 ft / 1,662 m 90.65° 105.00° Asphalt 492 ft / 150 m 0 ft / 0 m
28 98 ft / 30 m 5,454 ft / 1,662 m 270.65° 285.00° Asphalt 492 ft / 150 m 0 ft / 0 m

Popular Alternatives